Wichita Falls, Texas
Current Conditions -  °F | °C
As of 8:15 PM on Saturday 22 Nov 2014 (Local Time) from KCWC Reporting Station
Clear Clear  
Wind Chill: 55°   Ceiling: Unl
Heat Index: 55°   Visibility: 10mi
Dew Point: 55°   Wind: 3mph
Humidity: 100%   Direction: 330°NNW
Pressure: 29.77"   Gusts: NA
Location:  33.91°N, 98.5°W
Report Text: KCWC 230215Z AUTO 33003KT 10SM CLR 13/13 A2977 RMK AO2 T01270127
Loading
Personal Weather Stations






























Interactive Weather Map New forecast layout! Learn more

10-Day Weather Forecast

Advertisements
Track Severe Weather on mobile